createdAt,value
2016-08-19T00:00:03.711Z,18.93
2016-08-19T00:01:03.015Z,19.02
2016-08-19T00:02:03.014Z,18.95
2016-08-19T00:03:03.015Z,19.07
2016-08-19T00:04:03.018Z,19.09
2016-08-19T00:05:03.021Z,19
2016-08-19T00:06:03.024Z,19.11
2016-08-19T00:07:03.030Z,19.07
2016-08-19T00:08:03.024Z,19.02
2016-08-19T00:09:03.734Z,19
2016-08-19T00:10:03.032Z,19.07
2016-08-19T00:11:03.034Z,19.14
2016-08-19T00:12:03.033Z,19.09
2016-08-19T00:13:03.034Z,19.04
2016-08-19T00:14:03.038Z,18.95
2016-08-19T00:15:03.045Z,18.89
2016-08-19T00:16:03.045Z,18.96
2016-08-19T00:17:03.065Z,18.84
2016-08-19T00:18:03.066Z,18.83
2016-08-19T00:19:03.065Z,18.83
2016-08-19T00:20:03.057Z,18.78
2016-08-19T00:21:03.067Z,18.78
2016-08-19T00:22:03.053Z,18.81
2016-08-19T00:23:03.068Z,18.81
2016-08-19T00:24:03.062Z,18.86
2016-08-19T00:25:03.063Z,18.8
2016-08-19T00:26:03.079Z,18.84
2016-08-19T00:27:03.077Z,18.86
2016-08-19T00:28:03.080Z,18.9
2016-08-19T00:29:03.091Z,18.86
2016-08-19T00:30:03.077Z,18.88
2016-08-19T00:31:03.079Z,18.92
2016-08-19T00:32:03.079Z,18.95
2016-08-19T00:33:03.081Z,18.84
2016-08-19T00:34:03.082Z,18.86
2016-08-19T00:35:03.085Z,18.84
2016-08-19T00:36:03.094Z,18.83
2016-08-19T00:37:03.095Z,18.8
2016-08-19T00:38:03.094Z,18.86
2016-08-19T00:39:03.105Z,18.8
2016-08-19T00:40:03.099Z,18.84
2016-08-19T00:41:03.107Z,18.77
2016-08-19T00:42:03.106Z,18.7
2016-08-19T00:43:03.108Z,18.66
2016-08-19T00:44:03.112Z,18.62
2016-08-19T00:45:03.120Z,18.62
2016-08-19T00:46:03.108Z,18.55
2016-08-19T00:47:03.110Z,18.55
2016-08-19T00:48:03.115Z,18.55
2016-08-19T00:49:03.117Z,18.62
2016-08-19T00:50:03.122Z,18.55
2016-08-19T00:51:03.121Z,18.52
2016-08-19T00:52:03.125Z,18.6
2016-08-19T00:53:03.126Z,18.56
2016-08-19T00:54:03.835Z,18.65
2016-08-19T00:55:03.135Z,18.52
2016-08-19T00:56:03.134Z,18.55
2016-08-19T00:57:03.135Z,18.52
2016-08-19T00:58:03.437Z,18.5
2016-08-19T00:59:03.138Z,18.6
2016-08-19T01:00:03.142Z,18.59
2016-08-19T01:01:03.143Z,18.55
2016-08-19T01:02:03.148Z,18.38
2016-08-19T01:03:03.146Z,18.4
2016-08-19T01:04:03.148Z,18.52
2016-08-19T01:05:03.861Z,18.43
2016-08-19T01:06:03.153Z,18.44
2016-08-19T01:07:03.159Z,18.45
2016-08-19T01:08:03.158Z,18.49
2016-08-19T01:09:03.162Z,18.49
2016-08-19T01:10:03.165Z,18.44
2016-08-19T01:11:03.162Z,18.44
2016-08-19T01:12:03.168Z,18.52
2016-08-19T01:13:03.186Z,18.49
2016-08-19T01:14:03.189Z,18.45
2016-08-19T01:15:03.191Z,18.43
2016-08-19T01:16:03.181Z,18.44
2016-08-19T01:17:03.185Z,18.38
2016-08-19T01:18:03.186Z,18.43
2016-08-19T01:19:03.190Z,18.49
2016-08-19T01:20:03.902Z,18.44
2016-08-19T01:21:03.190Z,18.43
2016-08-19T01:22:03.193Z,18.52
2016-08-19T01:23:03.191Z,18.5
2016-08-19T01:24:03.193Z,18.5
2016-08-19T01:25:03.196Z,18.56
2016-08-19T01:26:03.195Z,18.44
2016-08-19T01:27:03.200Z,18.55
2016-08-19T01:28:03.204Z,18.6
2016-08-19T01:29:03.205Z,18.49
2016-08-19T01:30:03.915Z,18.53
2016-08-19T01:31:03.209Z,18.59
2016-08-19T01:32:03.215Z,18.53
2016-08-19T01:33:03.216Z,18.52
2016-08-19T01:34:03.217Z,18.56
2016-08-19T01:35:03.220Z,18.53
2016-08-19T01:36:03.219Z,18.6
2016-08-19T01:37:03.227Z,18.58
2016-08-19T01:38:03.226Z,18.63
2016-08-19T01:39:03.229Z,18.56
2016-08-19T01:40:03.227Z,18.63
2016-08-19T01:41:03.231Z,18.74
2016-08-19T01:42:03.234Z,18.58
2016-08-19T01:43:03.235Z,18.59
2016-08-19T01:44:03.236Z,18.55
2016-08-19T01:45:03.241Z,18.63
2016-08-19T01:46:03.244Z,18.68
2016-08-19T01:47:03.245Z,18.63
2016-08-19T01:48:03.255Z,18.66
2016-08-19T01:49:03.253Z,18.73
2016-08-19T01:50:03.956Z,18.65
2016-08-19T01:51:03.254Z,18.7
2016-08-19T01:52:03.254Z,18.66
2016-08-19T01:53:03.257Z,18.66
2016-08-19T01:54:03.965Z,18.66
2016-08-19T01:55:03.972Z,18.62
2016-08-19T01:56:03.263Z,18.7
2016-08-19T01:57:03.267Z,18.73
2016-08-19T01:58:03.324Z,18.68
2016-08-19T01:59:03.977Z,18.66
2016-08-19T02:00:03.269Z,18.58
2016-08-19T02:01:03.277Z,18.6
2016-08-19T02:02:03.282Z,18.62
2016-08-19T02:03:03.288Z,18.55
2016-08-19T02:04:03.288Z,18.55
2016-08-19T02:05:04.000Z,18.59
2016-08-19T02:06:03.287Z,18.5
2016-08-19T02:07:03.291Z,18.6
2016-08-19T02:08:03.291Z,18.53
2016-08-19T02:09:03.295Z,18.49
2016-08-19T02:10:03.322Z,18.49
2016-08-19T02:11:03.296Z,18.43
2016-08-19T02:12:03.296Z,18.34
2016-08-19T02:13:03.303Z,18.34
2016-08-19T02:14:04.009Z,18.31
2016-08-19T02:15:03.308Z,18.29
2016-08-19T02:16:03.307Z,18.31
2016-08-19T02:17:03.307Z,18.22
2016-08-19T02:18:03.312Z,18.22
2016-08-19T02:19:03.318Z,18.22
2016-08-19T02:20:03.315Z,18.23
2016-08-19T02:21:03.320Z,18.2
2016-08-19T02:22:03.317Z,18.16
2016-08-19T02:23:03.319Z,18.19
2016-08-19T02:24:03.319Z,18.11
2016-08-19T02:25:03.325Z,18.11
2016-08-19T02:26:03.329Z,18.19
2016-08-19T02:27:03.327Z,18.13
2016-08-19T02:28:03.335Z,18.13
2016-08-19T02:29:03.338Z,18.05
2016-08-19T02:30:03.346Z,18.04
2016-08-19T02:31:03.340Z,18.07
2016-08-19T02:32:03.342Z,18.05
2016-08-19T02:33:03.340Z,17.98
2016-08-19T02:34:03.342Z,18.07
2016-08-19T02:35:03.352Z,18.03
2016-08-19T02:36:03.350Z,17.97
2016-08-19T02:37:03.352Z,17.97
2016-08-19T02:38:03.352Z,17.9
2016-08-19T02:39:03.355Z,17.95
2016-08-19T02:40:03.353Z,17.95
2016-08-19T02:41:03.367Z,17.89
2016-08-19T02:42:03.395Z,17.95
2016-08-19T02:43:03.366Z,17.82
2016-08-19T02:44:03.393Z,17.78
2016-08-19T02:45:04.081Z,17.79
2016-08-19T02:46:03.372Z,17.79
2016-08-19T02:47:03.397Z,17.74
2016-08-19T02:48:04.080Z,17.76
2016-08-19T02:49:03.370Z,17.68
2016-08-19T02:50:03.398Z,17.65
2016-08-19T02:51:03.397Z,17.67
2016-08-19T02:52:03.397Z,17.63
2016-08-19T02:53:03.399Z,17.6
2016-08-19T02:54:03.411Z,17.6
2016-08-19T02:55:03.401Z,17.59
2016-08-19T02:56:03.401Z,17.49
2016-08-19T02:57:03.398Z,17.42
2016-08-19T02:58:03.591Z,17.38
2016-08-19T02:59:03.401Z,17.36
2016-08-19T03:00:03.399Z,17.38
2016-08-19T03:01:03.406Z,17.38
2016-08-19T03:02:03.401Z,17.31
2016-08-19T03:03:03.405Z,17.31
2016-08-19T03:04:03.403Z,17.36
2016-08-19T03:05:03.406Z,17.26
2016-08-19T03:06:03.409Z,17.27
2016-08-19T03:07:03.421Z,17.24
2016-08-19T03:08:03.404Z,17.24
2016-08-19T03:09:03.418Z,17.27
2016-08-19T03:10:03.410Z,17.2
2016-08-19T03:11:03.411Z,17.14
2016-08-19T03:12:03.411Z,17.16
2016-08-19T03:13:03.408Z,17.15
2016-08-19T03:14:03.415Z,17.2
2016-08-19T03:15:04.132Z,17.14
2016-08-19T03:16:03.418Z,17.16
2016-08-19T03:17:03.423Z,17.11
2016-08-19T03:18:03.430Z,17.16
2016-08-19T03:19:03.424Z,17.23
2016-08-19T03:20:03.430Z,17.19
2016-08-19T03:21:03.428Z,17.2
2016-08-19T03:22:03.432Z,17.15
2016-08-19T03:23:03.449Z,17.22
2016-08-19T03:24:04.141Z,17.14
2016-08-19T03:25:03.435Z,17.2
2016-08-19T03:26:03.434Z,17.23
2016-08-19T03:27:03.436Z,17.15
2016-08-19T03:28:03.448Z,17.16
2016-08-19T03:29:03.445Z,17.24
2016-08-19T03:30:03.453Z,17.2
2016-08-19T03:31:03.454Z,17.2
2016-08-19T03:32:03.451Z,17.19
2016-08-19T03:33:03.457Z,17.22
2016-08-19T03:34:03.452Z,17.15
2016-08-19T03:35:03.458Z,17.16
2016-08-19T03:36:03.455Z,17.11
2016-08-19T03:37:03.456Z,17.15
2016-08-19T03:38:03.461Z,17.19
2016-08-19T03:39:03.454Z,17.06
2016-08-19T03:40:03.457Z,17.12
2016-08-19T03:41:03.457Z,17.05
2016-08-19T03:42:03.457Z,17.09
2016-08-19T03:43:03.462Z,17.09
2016-08-19T03:44:03.473Z,17.06
2016-08-19T03:45:03.482Z,17.06
2016-08-19T03:46:03.485Z,16.99
2016-08-19T03:47:03.465Z,17.01
2016-08-19T03:48:04.179Z,16.96
2016-08-19T03:49:03.487Z,16.99
2016-08-19T03:50:03.484Z,16.96
2016-08-19T03:51:03.479Z,16.96
2016-08-19T03:52:03.487Z,16.94
2016-08-19T03:53:03.490Z,16.9
2016-08-19T03:54:04.188Z,16.86
2016-08-19T03:55:03.487Z,16.87
2016-08-19T03:56:03.488Z,16.86
2016-08-19T03:57:03.491Z,16.91
2016-08-19T03:58:03.633Z,16.9
2016-08-19T03:59:03.491Z,16.93
2016-08-19T04:00:03.498Z,16.99
2016-08-19T04:01:03.493Z,16.91
2016-08-19T04:02:03.501Z,16.97
2016-08-19T04:03:03.494Z,16.93
2016-08-19T04:04:03.505Z,16.91
2016-08-19T04:05:04.202Z,16.94
2016-08-19T04:06:03.505Z,16.94
2016-08-19T04:07:03.501Z,16.86
2016-08-19T04:08:03.506Z,16.94
2016-08-19T04:09:03.512Z,16.94
2016-08-19T04:10:03.507Z,16.87
2016-08-19T04:11:03.510Z,16.86
2016-08-19T04:12:03.507Z,16.91
2016-08-19T04:13:03.515Z,16.89
2016-08-19T04:14:03.510Z,16.89
2016-08-19T04:15:03.514Z,16.86
2016-08-19T04:16:03.511Z,16.86
2016-08-19T04:17:03.517Z,16.89
2016-08-19T04:18:03.517Z,16.9
2016-08-19T04:19:03.528Z,16.86
2016-08-19T04:20:03.521Z,16.91
2016-08-19T04:21:03.517Z,16.87
2016-08-19T04:22:04.235Z,16.94
2016-08-19T04:23:03.524Z,16.87
2016-08-19T04:24:03.531Z,16.96
2016-08-19T04:25:03.538Z,16.93
2016-08-19T04:26:03.529Z,16.94
2016-08-19T04:27:03.535Z,16.96
2016-08-19T04:28:03.532Z,16.96
2016-08-19T04:29:03.529Z,16.93
2016-08-19T04:30:03.534Z,16.96
2016-08-19T04:31:03.538Z,16.9
2016-08-19T04:32:03.533Z,16.9
2016-08-19T04:33:03.537Z,16.99
2016-08-19T04:34:03.541Z,16.94
2016-08-19T04:35:03.539Z,16.94
2016-08-19T04:36:03.549Z,16.94
2016-08-19T04:37:03.540Z,17.01
2016-08-19T04:38:03.547Z,16.94
2016-08-19T04:39:03.547Z,16.94
2016-08-19T04:40:03.547Z,16.96
2016-08-19T04:41:03.554Z,16.97
2016-08-19T04:42:03.562Z,16.97
2016-08-19T04:43:03.557Z,17.04
2016-08-19T04:44:03.553Z,17.05
2016-08-19T04:45:03.552Z,17.02
2016-08-19T04:46:03.555Z,17.05
2016-08-19T04:47:03.553Z,17.14
2016-08-19T04:48:03.556Z,17.15
2016-08-19T04:49:03.583Z,17.14
2016-08-19T04:50:03.557Z,17.22
2016-08-19T04:51:03.561Z,17.16
2016-08-19T04:52:03.562Z,17.16
2016-08-19T04:53:03.563Z,17.23
2016-08-19T04:54:03.563Z,17.3
2016-08-19T04:55:03.561Z,17.46
2016-08-19T04:56:03.567Z,17.39
2016-08-19T04:57:03.596Z,17.39
2016-08-19T04:58:04.477Z,17.48
2016-08-19T04:59:04.287Z,17.6
2016-08-19T05:00:03.575Z,17.65
2016-08-19T05:01:03.578Z,17.76
2016-08-19T05:02:03.578Z,17.89
2016-08-19T05:03:03.574Z,17.97
2016-08-19T05:04:03.582Z,18
2016-08-19T05:05:03.584Z,18.13
2016-08-19T05:06:03.589Z,18.2
2016-08-19T05:07:03.589Z,18.31
2016-08-19T05:08:03.590Z,18.44
2016-08-19T05:09:03.593Z,18.65
2016-08-19T05:10:04.306Z,18.89
2016-08-19T05:11:03.595Z,19.14
2016-08-19T05:12:03.605Z,19.31
2016-08-19T05:13:03.603Z,19.41
2016-08-19T05:14:03.607Z,19.71
2016-08-19T05:15:03.605Z,19.81
2016-08-19T05:16:03.601Z,20.03
2016-08-19T05:17:03.609Z,20.25
2016-08-19T05:18:03.624Z,20.39
2016-08-19T05:19:03.618Z,20.62
2016-08-19T05:20:03.637Z,20.65
2016-08-19T05:21:03.623Z,20.55
2016-08-19T05:22:03.630Z,20.55
2016-08-19T05:23:03.647Z,20.4
2016-08-19T05:24:03.629Z,20.19
2016-08-19T05:25:03.633Z,20
2016-08-19T05:26:03.637Z,19.88
2016-08-19T05:27:04.365Z,19.74
2016-08-19T05:28:03.650Z,19.64
2016-08-19T05:29:03.642Z,19.67
2016-08-19T05:30:03.655Z,19.62
2016-08-19T05:31:03.652Z,19.64
2016-08-19T05:32:03.658Z,19.55
2016-08-19T05:33:03.668Z,19.51
2016-08-19T05:34:03.665Z,19.44
2016-08-19T05:35:03.667Z,19.3
2016-08-19T05:36:03.670Z,19.34
2016-08-19T05:37:03.670Z,19.39
2016-08-19T05:38:03.672Z,19.34
2016-08-19T05:39:03.681Z,19.27
2016-08-19T05:40:03.703Z,19.18
2016-08-19T05:41:03.687Z,19.11
2016-08-19T05:42:03.684Z,19.15
2016-08-19T05:43:03.688Z,19.18
2016-08-19T05:44:03.708Z,19.15
2016-08-19T05:45:04.416Z,19.08
2016-08-19T05:46:03.713Z,18.92
2016-08-19T05:47:03.707Z,18.77
2016-08-19T05:48:03.708Z,18.8
2016-08-19T05:49:03.709Z,19.02
2016-08-19T05:50:03.715Z,19.36
2016-08-19T05:51:03.713Z,19.7
2016-08-19T05:52:03.712Z,19.95
2016-08-19T05:53:03.713Z,20.26
2016-08-19T05:54:03.719Z,20.32
2016-08-19T05:55:03.719Z,20.67
2016-08-19T05:56:03.722Z,21.09
2016-08-19T05:57:03.728Z,21.36
2016-08-19T05:58:03.930Z,21.48
2016-08-19T05:59:04.440Z,21.66
2016-08-19T06:00:03.737Z,21.96
2016-08-19T06:01:03.738Z,22.22
2016-08-19T06:02:03.744Z,22.39
2016-08-19T06:03:03.757Z,22.68
2016-08-19T06:04:03.756Z,22.8
2016-08-19T06:05:04.470Z,22.99
2016-08-19T06:06:03.775Z,22.87
2016-08-19T06:07:03.778Z,22.57
2016-08-19T06:08:03.779Z,22.28
2016-08-19T06:09:03.778Z,22.02
2016-08-19T06:10:03.781Z,21.58
2016-08-19T06:11:03.795Z,21.36
2016-08-19T06:12:03.801Z,21.07
2016-08-19T06:13:03.797Z,20.9
2016-08-19T06:14:03.797Z,20.69
2016-08-19T06:15:03.800Z,20.43
2016-08-19T06:16:03.804Z,20.34
2016-08-19T06:17:03.811Z,20.26
2016-08-19T06:18:03.811Z,20.26
2016-08-19T06:19:03.835Z,20.22
2016-08-19T06:20:03.860Z,20.37
2016-08-19T06:21:03.828Z,20.69
2016-08-19T06:22:03.827Z,21.15
2016-08-19T06:23:03.837Z,21.62
2016-08-19T06:24:03.830Z,21.96
2016-08-19T06:25:03.838Z,22.47
2016-08-19T06:26:03.839Z,23
2016-08-19T06:27:03.845Z,23.43
2016-08-19T06:28:03.867Z,23.74
2016-08-19T06:29:03.862Z,24.13
2016-08-19T06:30:03.862Z,24.43
2016-08-19T06:31:03.869Z,24.61
2016-08-19T06:32:03.865Z,24.78
2016-08-19T06:33:03.875Z,24.91
2016-08-19T06:34:03.884Z,25.08
2016-08-19T06:35:04.595Z,25.21
2016-08-19T06:36:04.598Z,25.38
2016-08-19T06:37:03.903Z,25.38
2016-08-19T06:38:03.905Z,25.43
2016-08-19T06:39:03.916Z,25.68
2016-08-19T06:40:03.912Z,25.87
2016-08-19T06:41:04.630Z,26.06
2016-08-19T06:42:03.934Z,26.26
2016-08-19T06:43:03.930Z,26.31
2016-08-19T06:44:03.937Z,26.51
2016-08-19T06:45:03.956Z,26.43
2016-08-19T06:46:03.952Z,26.36
2016-08-19T06:47:03.971Z,26.48
2016-08-19T06:48:03.968Z,26.43
2016-08-19T06:49:03.979Z,26.56
2016-08-19T06:50:03.984Z,26.74
2016-08-19T06:51:03.988Z,26.85
2016-08-19T06:52:03.989Z,26.96
2016-08-19T06:53:04.715Z,27
2016-08-19T06:54:04.012Z,27.15
2016-08-19T06:55:04.012Z,27.22
2016-08-19T06:56:04.023Z,27.08
2016-08-19T06:57:04.031Z,27.17
2016-08-19T06:58:04.082Z,27.11
2016-08-19T06:59:04.038Z,26.7
2016-08-19T07:00:04.070Z,26.43
2016-08-19T07:01:04.074Z,26.06
2016-08-19T07:02:04.086Z,25.91
2016-08-19T07:03:04.075Z,25.91
2016-08-19T07:04:04.077Z,25.84
2016-08-19T07:05:04.079Z,25.87
2016-08-19T07:06:04.084Z,25.84
2016-08-19T07:07:04.096Z,25.85
2016-08-19T07:08:04.107Z,25.93
2016-08-19T07:09:04.820Z,26.21
2016-08-19T07:10:04.835Z,26.23
2016-08-19T07:11:04.121Z,26.28
2016-08-19T07:12:04.130Z,26.45
2016-08-19T07:13:04.134Z,26.65
2016-08-19T07:14:04.142Z,26.95
2016-08-19T07:15:04.151Z,26.97
2016-08-19T07:16:04.160Z,27.07
2016-08-19T07:17:04.192Z,27.27
2016-08-19T07:18:04.168Z,27.14
2016-08-19T07:19:04.191Z,27.15
2016-08-19T07:20:04.193Z,27.08
2016-08-19T07:21:04.199Z,26.84
2016-08-19T07:22:04.209Z,26.62
2016-08-19T07:23:04.205Z,26.48
2016-08-19T07:24:04.211Z,26.47
2016-08-19T07:25:04.221Z,26.45
2016-08-19T07:26:04.226Z,26.37
2016-08-19T07:27:04.231Z,26.06
2016-08-19T07:28:04.240Z,25.98
2016-08-19T07:29:04.243Z,26.15
2016-08-19T07:30:04.258Z,26.44
2016-08-19T07:31:04.263Z,26.31
2016-08-19T07:32:04.263Z,26.06
2016-08-19T07:33:04.270Z,25.84
2016-08-19T07:34:04.277Z,25.36
2016-08-19T07:35:04.289Z,25.06
2016-08-19T07:36:04.285Z,24.8
2016-08-19T07:37:04.298Z,24.61
2016-08-19T07:38:04.299Z,24.3
2016-08-19T07:39:04.304Z,24.11
2016-08-19T07:40:04.321Z,24.03
2016-08-19T07:41:04.322Z,24.2
2016-08-19T07:42:04.324Z,24.24
2016-08-19T07:43:04.329Z,24.3
2016-08-19T07:44:04.342Z,24.18
2016-08-19T07:45:04.344Z,24.48
2016-08-19T07:46:04.347Z,25.03
2016-08-19T07:47:04.352Z,25.29
2016-08-19T07:48:04.358Z,25.69
2016-08-19T07:49:04.361Z,26.16
2016-08-19T07:50:04.379Z,26.65
2016-08-19T07:51:04.382Z,27.15
2016-08-19T07:52:04.382Z,27.67
2016-08-19T07:53:04.384Z,28.04
2016-08-19T07:54:04.388Z,28.12
2016-08-19T07:55:04.404Z,28.22
2016-08-19T07:56:04.413Z,28.51
2016-08-19T07:57:04.413Z,28.49
2016-08-19T07:58:05.179Z,28.57
2016-08-19T07:59:04.428Z,28.69
2016-08-19T08:00:04.443Z,28.75
2016-08-19T08:01:04.448Z,28.69
2016-08-19T08:02:04.448Z,28.78
2016-08-19T08:03:04.458Z,28.75
2016-08-19T08:04:04.459Z,28.81
2016-08-19T08:05:04.475Z,28.86
2016-08-19T08:06:05.195Z,28.85
2016-08-19T08:07:04.492Z,29.04
2016-08-19T08:08:04.486Z,29.12
2016-08-19T08:09:04.497Z,29.08
2016-08-19T08:10:04.502Z,29.38
2016-08-19T08:11:04.512Z,29.72
2016-08-19T08:12:04.539Z,29.73
2016-08-19T08:13:04.541Z,29.63
2016-08-19T08:14:04.545Z,29.24
2016-08-19T08:15:04.548Z,29.14
2016-08-19T08:16:04.557Z,29.13
2016-08-19T08:17:04.571Z,29.39
2016-08-19T08:18:04.565Z,29.66
2016-08-19T08:19:04.574Z,29.36
2016-08-19T08:20:04.581Z,29.53
2016-08-19T08:21:04.596Z,29.75
2016-08-19T08:22:04.603Z,30.03
2016-08-19T08:23:04.621Z,30.13
2016-08-19T08:24:05.322Z,30.37
2016-08-19T08:25:04.621Z,30.31
2016-08-19T08:26:04.626Z,30.16
2016-08-19T08:27:04.633Z,30.02
2016-08-19T08:28:04.645Z,29.87
2016-08-19T08:29:04.647Z,29.86
2016-08-19T08:30:04.659Z,30.08
2016-08-19T08:31:04.667Z,30.32
2016-08-19T08:32:04.703Z,30.43
2016-08-19T08:33:04.684Z,30.44
2016-08-19T08:34:04.694Z,30.31
2016-08-19T08:35:04.702Z,30.32
2016-08-19T08:36:04.709Z,30.4
2016-08-19T08:37:04.718Z,30.12
2016-08-19T08:38:04.739Z,29.87
2016-08-19T08:39:04.743Z,29.72
2016-08-19T08:40:04.740Z,29.6
2016-08-19T08:41:04.751Z,29.02
2016-08-19T08:42:04.760Z,28.22
2016-08-19T08:43:04.767Z,27.58
2016-08-19T08:44:04.789Z,27.14
2016-08-19T08:45:04.789Z,26.83
2016-08-19T08:46:04.791Z,26.47
2016-08-19T08:47:04.807Z,26.22
2016-08-19T08:48:04.807Z,26.02
2016-08-19T08:49:04.815Z,25.83
2016-08-19T08:50:05.529Z,25.6
2016-08-19T08:51:05.541Z,25.54
2016-08-19T08:52:04.851Z,25.4
2016-08-19T08:53:05.554Z,25.41
2016-08-19T08:54:04.860Z,25.44
2016-08-19T08:55:04.895Z,25.41
2016-08-19T08:56:04.879Z,25.4
2016-08-19T08:57:04.876Z,25.29
2016-08-19T08:58:04.978Z,25.35
2016-08-19T08:59:04.888Z,25.17
2016-08-19T09:00:04.894Z,25.18
2016-08-19T09:01:04.903Z,25.18
2016-08-19T09:02:04.909Z,25.18
2016-08-19T09:03:04.910Z,25.38
2016-08-19T09:04:04.921Z,25.36
2016-08-19T09:05:04.945Z,25.29
2016-08-19T09:06:04.936Z,25.25
2016-08-19T09:07:04.941Z,25.23
2016-08-19T09:08:04.944Z,25.17
2016-08-19T09:09:04.949Z,25.07
2016-08-19T09:10:04.953Z,25.03
2016-08-19T09:11:04.963Z,25.08
2016-08-19T09:12:04.968Z,24.92
2016-08-19T09:13:05.678Z,24.84
2016-08-19T09:14:04.977Z,24.89
2016-08-19T09:15:04.982Z,24.91
2016-08-19T09:16:04.996Z,24.85
2016-08-19T09:17:05.003Z,24.81
2016-08-19T09:18:05.005Z,24.8
2016-08-19T09:19:05.007Z,24.8
2016-08-19T09:20:05.011Z,24.86
2016-08-19T09:21:05.021Z,24.88
2016-08-19T09:22:05.025Z,24.98
2016-08-19T09:23:05.025Z,25.01
2016-08-19T09:24:05.039Z,25.1
2016-08-19T09:25:05.046Z,25.21
2016-08-19T09:26:05.043Z,25.21
2016-08-19T09:27:05.045Z,25.1
2016-08-19T09:28:05.759Z,25.01
2016-08-19T09:29:05.067Z,25.01
2016-08-19T09:30:05.070Z,24.96
2016-08-19T09:31:05.070Z,25.06
2016-08-19T09:32:05.077Z,25.04
2016-08-19T09:33:05.091Z,25.07
2016-08-19T09:34:05.087Z,25.13
2016-08-19T09:35:05.092Z,25.23
2016-08-19T09:36:05.107Z,25.25
2016-08-19T09:37:05.104Z,25.23
2016-08-19T09:38:05.112Z,25.29
2016-08-19T09:39:05.111Z,25.25
2016-08-19T09:40:05.826Z,25.17
2016-08-19T09:41:05.119Z,25.11
2016-08-19T09:42:05.167Z,25.17
2016-08-19T09:43:05.141Z,25.1
2016-08-19T09:44:05.165Z,25.25
2016-08-19T09:45:05.150Z,25.21
2016-08-19T09:46:05.157Z,25.31
2016-08-19T09:47:05.148Z,25.43
2016-08-19T09:48:05.150Z,25.41
2016-08-19T09:49:05.162Z,25.38
2016-08-19T09:50:05.169Z,25.51
2016-08-19T09:51:05.170Z,25.48
2016-08-19T09:52:05.176Z,25.46
2016-08-19T09:53:05.187Z,25.31
2016-08-19T09:54:05.185Z,25.33
2016-08-19T09:55:05.193Z,25.31
2016-08-19T09:56:05.204Z,25.21
2016-08-19T09:57:05.208Z,25.23
2016-08-19T09:58:05.259Z,25.29
2016-08-19T09:59:05.208Z,25.18
2016-08-19T10:00:05.228Z,25.25
2016-08-19T10:01:05.938Z,25.4
2016-08-19T10:02:05.241Z,25.53
2016-08-19T10:03:05.943Z,25.6
2016-08-19T10:04:05.242Z,25.66
2016-08-19T10:05:05.527Z,25.66
2016-08-19T10:06:05.250Z,25.69
2016-08-19T10:07:05.259Z,25.68
2016-08-19T10:08:05.266Z,25.65
2016-08-19T10:09:05.266Z,25.68
2016-08-19T10:10:05.272Z,25.63
2016-08-19T10:11:05.979Z,25.69
2016-08-19T10:12:05.298Z,25.66
2016-08-19T10:13:05.284Z,25.63
2016-08-19T10:14:05.301Z,25.66
2016-08-19T10:15:06.012Z,25.69
2016-08-19T10:16:05.308Z,25.65
2016-08-19T10:17:05.314Z,25.63
2016-08-19T10:18:05.314Z,25.66
2016-08-19T10:19:05.322Z,25.5
2016-08-19T10:20:05.332Z,25.41
2016-08-19T10:21:05.337Z,25.38
2016-08-19T10:22:05.338Z,25.29
2016-08-19T10:23:05.337Z,25.47
2016-08-19T10:24:05.346Z,25.53
2016-08-19T10:25:05.356Z,25.66
2016-08-19T10:26:05.366Z,25.72
2016-08-19T10:27:05.366Z,25.87
2016-08-19T10:28:06.064Z,25.91
2016-08-19T10:29:05.381Z,25.87
2016-08-19T10:30:05.386Z,25.77
2016-08-19T10:31:05.398Z,25.72
2016-08-19T10:32:05.394Z,25.66
2016-08-19T10:33:05.397Z,25.68
2016-08-19T10:34:05.402Z,25.65
2016-08-19T10:35:05.396Z,25.66
2016-08-19T10:36:05.402Z,25.81
2016-08-19T10:37:06.128Z,25.73
2016-08-19T10:38:05.439Z,25.78
2016-08-19T10:39:05.418Z,25.68
2016-08-19T10:40:06.133Z,25.68
2016-08-19T10:41:05.438Z,25.69
2016-08-19T10:42:05.436Z,25.88
2016-08-19T10:43:05.453Z,25.95
2016-08-19T10:44:05.458Z,25.95
2016-08-19T10:45:05.456Z,26.06
2016-08-19T10:46:05.460Z,26.06
2016-08-19T10:47:05.491Z,26.21
2016-08-19T10:48:05.462Z,26.19
2016-08-19T10:49:05.470Z,26.28
2016-08-19T10:50:05.477Z,26.41
2016-08-19T10:51:05.486Z,26.45
2016-08-19T10:52:05.497Z,26.44
2016-08-19T10:53:05.496Z,26.45
2016-08-19T10:54:05.516Z,26.48
2016-08-19T10:55:05.503Z,26.59
2016-08-19T10:56:05.505Z,26.68
2016-08-19T10:57:05.515Z,26.74
2016-08-19T10:58:05.725Z,26.74
2016-08-19T10:59:05.529Z,26.84
2016-08-19T11:00:05.535Z,27.07
2016-08-19T11:01:05.539Z,26.95
2016-08-19T11:02:05.542Z,26.97
2016-08-19T11:03:05.551Z,26.85
2016-08-19T11:04:05.552Z,26.77
2016-08-19T11:05:05.561Z,26.68
2016-08-19T11:06:05.569Z,26.56
2016-08-19T11:07:05.574Z,26.56
2016-08-19T11:08:05.583Z,26.51
2016-08-19T11:09:05.596Z,26.6
2016-08-19T11:10:05.586Z,26.63
2016-08-19T11:11:05.594Z,26.85
2016-08-19T11:12:05.600Z,26.96
2016-08-19T11:13:05.613Z,27.03
2016-08-19T11:14:05.610Z,26.97
2016-08-19T11:15:05.616Z,27.08
2016-08-19T11:16:05.629Z,27.2
2016-08-19T11:17:05.635Z,27.32
2016-08-19T11:18:05.632Z,27.37
2016-08-19T11:19:05.667Z,27.39
2016-08-19T11:20:05.663Z,27.52
2016-08-19T11:21:05.650Z,27.59
2016-08-19T11:22:05.660Z,27.6
2016-08-19T11:23:05.663Z,27.63
2016-08-19T11:24:05.670Z,27.8
2016-08-19T11:25:05.682Z,27.82
2016-08-19T11:26:06.391Z,27.65
2016-08-19T11:27:05.696Z,27.78
2016-08-19T11:28:05.697Z,27.71
2016-08-19T11:29:05.704Z,27.73
2016-08-19T11:30:05.718Z,27.8
2016-08-19T11:31:05.719Z,27.8
2016-08-19T11:32:05.721Z,27.75
2016-08-19T11:33:05.741Z,27.54
2016-08-19T11:34:05.744Z,27.42
2016-08-19T11:35:06.448Z,27.27
2016-08-19T11:36:05.745Z,27.39
2016-08-19T11:37:05.755Z,27.4
2016-08-19T11:38:05.758Z,27.48
2016-08-19T11:39:05.761Z,27.58
2016-08-19T11:40:05.769Z,27.7
2016-08-19T11:41:05.787Z,27.74
2016-08-19T11:42:05.788Z,27.71
2016-08-19T11:43:06.497Z,27.86
2016-08-19T11:44:05.791Z,27.95
2016-08-19T11:45:05.811Z,28.1
2016-08-19T11:46:05.808Z,28.1
2016-08-19T11:47:05.831Z,28.08
2016-08-19T11:48:05.826Z,28.02
2016-08-19T11:49:05.828Z,28.1
2016-08-19T11:50:05.835Z,28.02
2016-08-19T11:51:05.838Z,27.92
2016-08-19T11:52:05.853Z,27.96
2016-08-19T11:53:05.853Z,27.83
2016-08-19T11:54:05.876Z,27.63
2016-08-19T11:55:05.873Z,27.6
2016-08-19T11:56:05.876Z,27.54
2016-08-19T11:57:05.889Z,27.49
2016-08-19T11:58:06.645Z,27.63
2016-08-19T11:59:05.911Z,27.47
2016-08-19T12:00:05.903Z,27.33
2016-08-19T12:01:05.911Z,27.39
2016-08-19T12:02:06.633Z,27.29
2016-08-19T12:03:05.918Z,27.22
2016-08-19T12:04:05.920Z,27.32
2016-08-19T12:05:05.938Z,27.3
2016-08-19T12:06:05.938Z,27.32
2016-08-19T12:07:06.654Z,27.37
2016-08-19T12:08:05.960Z,27.44
2016-08-19T12:09:05.953Z,27.47
2016-08-19T12:10:05.964Z,27.42
2016-08-19T12:11:05.973Z,27.52
2016-08-19T12:12:05.974Z,27.67
2016-08-19T12:13:06.686Z,27.6
2016-08-19T12:14:05.984Z,27.63
2016-08-19T12:15:05.997Z,27.35
2016-08-19T12:16:06.006Z,27.2
2016-08-19T12:17:06.007Z,27.26
2016-08-19T12:18:06.014Z,27.18
2016-08-19T12:19:06.019Z,27.29
2016-08-19T12:20:06.049Z,27.3
2016-08-19T12:21:06.037Z,27.44
2016-08-19T12:22:06.037Z,27.63
2016-08-19T12:23:06.040Z,27.67
2016-08-19T12:24:06.044Z,27.64
2016-08-19T12:25:06.051Z,27.71
2016-08-19T12:26:06.059Z,27.63
2016-08-19T12:27:06.061Z,27.6
2016-08-19T12:28:06.072Z,27.54
2016-08-19T12:29:06.089Z,27.63
2016-08-19T12:30:06.791Z,27.58
2016-08-19T12:31:06.108Z,27.59
2016-08-19T12:32:06.094Z,27.7
2016-08-19T12:33:06.103Z,27.64
2016-08-19T12:34:06.138Z,27.65
2016-08-19T12:35:06.195Z,27.64
2016-08-19T12:36:06.202Z,27.6
2016-08-19T12:37:06.127Z,27.55
2016-08-19T12:38:06.133Z,27.51
2016-08-19T12:39:06.148Z,27.48
2016-08-19T12:40:06.143Z,27.7
2016-08-19T12:41:06.149Z,27.58
2016-08-19T12:42:06.153Z,27.59
2016-08-19T12:43:06.174Z,27.67
2016-08-19T12:44:06.170Z,27.7
2016-08-19T12:45:06.169Z,27.73
2016-08-19T12:46:06.177Z,27.85
2016-08-19T12:47:06.183Z,27.8
2016-08-19T12:48:06.195Z,27.68
2016-08-19T12:49:06.192Z,27.44
2016-08-19T12:50:06.203Z,27.33
2016-08-19T12:51:06.915Z,27.14
2016-08-19T12:52:06.220Z,27.12
2016-08-19T12:53:06.233Z,27.07
2016-08-19T12:54:06.235Z,27.07
2016-08-19T12:55:06.235Z,27.08